createdAt,value
2022-10-23T00:00:29.072Z,5.13
2022-10-23T00:03:00.592Z,5.47
2022-10-23T00:05:31.229Z,5.60
2022-10-23T00:08:02.201Z,5.90
2022-10-23T00:10:32.685Z,5.63
2022-10-23T00:13:03.704Z,5.05
2022-10-23T00:15:37.402Z,5.60
2022-10-23T00:18:07.928Z,5.78
2022-10-23T00:20:38.325Z,5.18
2022-10-23T00:23:08.774Z,4.90
2022-10-23T00:25:39.991Z,4.78
2022-10-23T00:28:10.967Z,5.40
2022-10-23T00:30:41.404Z,6.28
2022-10-23T00:33:12.193Z,8.63
2022-10-23T00:35:43.960Z,8.95
2022-10-23T00:38:14.628Z,8.85
2022-10-23T00:40:46.425Z,10.38
2022-10-23T00:43:26.473Z,9.50
2022-10-23T00:45:57.781Z,8.70
2022-10-23T00:48:30.319Z,9.87
2022-10-23T00:51:00.898Z,10.25
2022-10-23T00:53:31.370Z,12.63
2022-10-23T00:56:04.236Z,13.27
2022-10-23T00:58:34.530Z,12.68
2022-10-23T01:01:16.944Z,13.85
2022-10-23T01:03:47.996Z,13.57
2022-10-23T01:06:44.043Z,13.23
2022-10-23T01:09:17.634Z,13.15
2022-10-23T01:12:23.236Z,12.57
2022-10-23T01:15:10.299Z,11.55
2022-10-23T01:18:03.594Z,12.40
2022-10-23T01:21:07.111Z,11.52
2022-10-23T01:23:51.479Z,10.85
2022-10-23T01:26:27.480Z,10.95
2022-10-23T01:29:33.072Z,11.07
2022-10-23T01:32:23.631Z,10.32
2022-10-23T01:34:59.159Z,9.48
2022-10-23T01:37:37.364Z,10.07
2022-10-23T01:40:19.633Z,9.27
2022-10-23T01:42:59.570Z,9.13
2022-10-23T01:45:43.327Z,9.15
2022-10-23T01:48:23.218Z,9.20
2022-10-23T01:50:57.317Z,9.05
2022-10-23T01:53:32.182Z,8.82
2022-10-23T01:56:07.892Z,9.40
2022-10-23T01:58:39.886Z,8.65
2022-10-23T02:03:52.322Z,8.77
2022-10-23T02:06:23.109Z,7.78
2022-10-23T02:08:53.842Z,8.68
2022-10-23T02:11:24.324Z,8.13
2022-10-23T02:14:05.208Z,8.30
2022-10-23T02:16:58.389Z,7.85
2022-10-23T02:19:51.262Z,7.88
2022-10-23T02:22:37.925Z,7.53
2022-10-23T02:25:29.385Z,8.00
2022-10-23T02:28:03.359Z,8.38
2022-10-23T02:30:44.176Z,8.20
2022-10-23T02:33:18.037Z,8.23
2022-10-23T02:35:49.959Z,8.20
2022-10-23T02:38:36.433Z,7.55
2022-10-23T02:41:30.239Z,8.05
2022-10-23T02:44:44.827Z,7.72
2022-10-23T02:47:30.378Z,8.05
2022-10-23T02:50:24.705Z,7.00
2022-10-23T02:53:06.607Z,6.30
2022-10-23T02:55:39.951Z,6.28
2022-10-23T02:58:23.683Z,6.30
2022-10-23T03:01:10.988Z,5.90
2022-10-23T03:03:48.095Z,5.82
2022-10-23T03:06:19.143Z,6.43
2022-10-23T03:09:00.143Z,5.43
2022-10-23T03:11:31.242Z,5.53
2022-10-23T03:14:01.744Z,6.38
2022-10-23T03:16:32.740Z,6.03
2022-10-23T03:19:03.203Z,5.72
2022-10-23T03:21:33.843Z,6.30
2022-10-23T03:24:06.701Z,6.47
2022-10-23T03:26:42.256Z,5.82
2022-10-23T03:29:13.469Z,5.80
2022-10-23T03:31:49.198Z,5.72
2022-10-23T03:34:20.404Z,6.10
2022-10-23T03:36:50.834Z,6.05
2022-10-23T03:39:23.531Z,6.00
2022-10-23T03:41:54.234Z,6.22
2022-10-23T03:44:24.786Z,5.40
2022-10-23T03:46:55.199Z,5.50
2022-10-23T03:49:25.985Z,5.50
2022-10-23T03:51:56.480Z,5.30
2022-10-23T03:54:30.798Z,5.25
2022-10-23T03:57:02.443Z,5.55
2022-10-23T03:59:32.809Z,6.37
2022-10-23T04:02:03.728Z,5.60
2022-10-23T04:04:35.135Z,5.47
2022-10-23T04:07:05.790Z,5.50
2022-10-23T04:09:36.322Z,5.82
2022-10-23T04:12:07.675Z,5.70
2022-10-23T04:14:38.656Z,5.20
2022-10-23T04:17:09.866Z,5.50
2022-10-23T04:19:40.382Z,5.45
2022-10-23T04:22:10.821Z,5.22
2022-10-23T04:24:47.533Z,4.90
2022-10-23T04:27:21.401Z,5.53
2022-10-23T04:29:54.257Z,6.10
2022-10-23T04:32:27.430Z,5.07
2022-10-23T04:34:57.847Z,5.68
2022-10-23T04:37:29.174Z,5.38
2022-10-23T04:39:59.519Z,5.75
2022-10-23T04:42:30.032Z,5.65
2022-10-23T04:45:03.042Z,5.47
2022-10-23T04:47:33.660Z,6.15
2022-10-23T04:50:06.146Z,6.15
2022-10-23T04:52:59.508Z,5.53
2022-10-23T04:55:29.921Z,5.47
2022-10-23T04:58:20.014Z,6.07
2022-10-23T05:00:51.669Z,5.83
2022-10-23T05:03:28.692Z,5.80
2022-10-23T05:05:59.207Z,5.40
2022-10-23T05:08:47.808Z,5.60
2022-10-23T05:11:42.968Z,5.68
2022-10-23T05:14:14.065Z,6.82
2022-10-23T05:16:59.596Z,6.53
2022-10-23T05:19:45.512Z,6.10
2022-10-23T05:22:16.573Z,5.45
2022-10-23T05:24:54.766Z,5.80
2022-10-23T05:27:28.290Z,5.20
2022-10-23T05:29:59.310Z,6.07
2022-10-23T05:32:35.581Z,5.35
2022-10-23T05:35:20.733Z,5.70
2022-10-23T05:37:54.432Z,5.13
2022-10-23T05:40:27.981Z,5.47
2022-10-23T05:43:06.948Z,4.75
2022-10-23T05:45:50.594Z,4.68
2022-10-23T05:48:34.711Z,4.28
2022-10-23T05:51:24.399Z,4.40
2022-10-23T05:54:15.232Z,3.73
2022-10-23T05:57:01.592Z,4.28
2022-10-23T05:59:38.726Z,4.10
2022-10-23T06:02:24.700Z,4.32
2022-10-23T06:05:00.899Z,3.85
2022-10-23T06:07:46.642Z,3.72
2022-10-23T06:10:18.541Z,4.25
2022-10-23T06:12:52.482Z,4.25
2022-10-23T06:18:07.363Z,3.92
2022-10-23T06:20:41.917Z,4.18
2022-10-23T06:23:17.780Z,4.03
2022-10-23T06:26:16.715Z,3.85
2022-10-23T06:29:13.117Z,3.40
2022-10-23T06:31:45.772Z,4.00
2022-10-23T06:34:16.778Z,3.23
2022-10-23T06:39:47.751Z,3.65
2022-10-23T06:42:50.155Z,3.58
2022-10-23T06:45:36.744Z,3.13
2022-10-23T06:48:16.751Z,3.33
2022-10-23T06:51:07.390Z,3.33
2022-10-23T06:53:45.130Z,2.95
2022-10-23T06:56:36.164Z,4.03
2022-10-23T06:59:09.977Z,4.40
2022-10-23T07:01:41.839Z,5.47
2022-10-23T07:04:16.836Z,5.43
2022-10-23T07:06:54.857Z,5.18
2022-10-23T07:09:28.821Z,5.63
2022-10-23T07:11:59.284Z,6.47
2022-10-23T07:14:38.364Z,5.90
2022-10-23T07:17:09.731Z,6.32
2022-10-23T07:19:41.557Z,5.53
2022-10-23T07:22:16.244Z,6.00
2022-10-23T07:25:12.640Z,5.63
2022-10-23T07:27:44.232Z,6.10
2022-10-23T07:30:16.372Z,6.07
2022-10-23T07:32:52.382Z,6.15
2022-10-23T07:35:42.495Z,6.22
2022-10-23T07:38:21.728Z,6.35
2022-10-23T07:41:00.247Z,6.35
2022-10-23T07:46:06.810Z,6.72
2022-10-23T07:48:41.893Z,6.88
2022-10-23T07:51:17.259Z,6.47
2022-10-23T07:53:50.746Z,6.40
2022-10-23T07:56:43.442Z,6.50
2022-10-23T07:59:24.053Z,7.43
2022-10-23T08:01:57.560Z,6.65
2022-10-23T08:04:34.535Z,6.40
2022-10-23T08:07:14.101Z,6.97
2022-10-23T08:09:46.671Z,6.55
2022-10-23T08:12:17.110Z,6.70
2022-10-23T08:14:47.554Z,6.03
2022-10-23T08:17:18.340Z,5.95
2022-10-23T08:20:09.988Z,6.55
2022-10-23T08:22:45.457Z,5.75
2022-10-23T08:25:24.820Z,6.10
2022-10-23T08:27:57.889Z,5.50
2022-10-23T08:30:29.401Z,5.78
2022-10-23T08:33:01.409Z,6.00
2022-10-23T08:35:31.982Z,5.32
2022-10-23T08:38:02.431Z,5.93
2022-10-23T08:40:37.629Z,5.65
2022-10-23T08:43:51.352Z,5.75
2022-10-23T08:46:40.793Z,6.20
2022-10-23T08:50:01.287Z,6.05
2022-10-23T08:53:03.875Z,6.38
2022-10-23T08:55:48.155Z,7.70
2022-10-23T08:58:26.026Z,9.18
2022-10-23T09:00:56.712Z,8.45
2022-10-23T09:03:28.669Z,8.80
2022-10-23T09:06:09.879Z,8.23
2022-10-23T09:08:53.027Z,8.88
2022-10-23T09:11:47.821Z,9.05
2022-10-23T09:14:50.718Z,8.60
2022-10-23T09:20:25.343Z,8.70
2022-10-23T09:23:06.472Z,8.88
2022-10-23T09:25:40.234Z,8.75
2022-10-23T09:28:26.360Z,10.15
2022-10-23T09:31:11.712Z,9.20
2022-10-23T09:33:42.816Z,9.02
2022-10-23T09:36:15.663Z,9.10
2022-10-23T09:38:48.789Z,10.13
2022-10-23T09:41:32.500Z,9.90
2022-10-23T09:44:09.277Z,10.30
2022-10-23T09:46:41.095Z,10.93
2022-10-23T09:49:47.635Z,10.15
2022-10-23T09:52:18.858Z,10.73
2022-10-23T09:55:04.757Z,10.27
2022-10-23T09:57:45.939Z,10.88
2022-10-23T10:00:28.279Z,11.70
2022-10-23T10:03:01.435Z,11.35
2022-10-23T10:05:45.555Z,11.70
2022-10-23T10:08:41.693Z,12.43
2022-10-23T10:11:14.601Z,11.25
2022-10-23T10:14:08.912Z,11.88
2022-10-23T10:16:52.893Z,12.02
2022-10-23T10:19:34.959Z,11.68
2022-10-23T10:22:22.068Z,11.98
2022-10-23T10:25:02.299Z,10.90
2022-10-23T10:27:56.674Z,12.43
2022-10-23T10:30:31.890Z,12.07
2022-10-23T10:33:16.848Z,12.38
2022-10-23T10:36:22.335Z,11.05
2022-10-23T10:39:05.413Z,11.52
2022-10-23T10:41:54.978Z,12.13
2022-10-23T10:44:35.506Z,11.57
2022-10-23T10:47:21.493Z,11.40
2022-10-23T10:50:31.913Z,10.25
2022-10-23T10:53:43.471Z,12.23
2022-10-23T10:56:16.877Z,13.02
2022-10-23T10:58:53.146Z,11.82
2022-10-23T11:01:53.582Z,11.35
2022-10-23T11:04:54.483Z,11.50
2022-10-23T11:07:32.427Z,12.30
2022-10-23T11:10:15.449Z,11.40
2022-10-23T11:12:48.387Z,11.55
2022-10-23T11:15:30.420Z,10.60
2022-10-23T11:18:05.002Z,11.88
2022-10-23T11:20:58.969Z,11.40
2022-10-23T11:23:53.254Z,11.52
2022-10-23T11:26:54.232Z,12.13
2022-10-23T11:29:50.488Z,13.63
2022-10-23T11:32:50.035Z,11.23
2022-10-23T11:35:45.034Z,12.38
2022-10-23T11:38:43.480Z,13.35
2022-10-23T11:41:26.726Z,13.52
2022-10-23T11:44:08.195Z,14.10
2022-10-23T11:46:40.174Z,12.98
2022-10-23T11:49:23.067Z,14.48
2022-10-23T11:52:06.008Z,13.35
2022-10-23T11:54:36.529Z,14.02
2022-10-23T11:57:10.692Z,14.82
2022-10-23T11:59:44.031Z,14.30
2022-10-23T12:02:35.107Z,14.02
2022-10-23T12:05:10.448Z,13.52
2022-10-23T12:07:43.498Z,12.13
2022-10-23T12:10:20.635Z,11.60
2022-10-23T12:13:00.016Z,11.88
2022-10-23T12:15:31.213Z,11.45
2022-10-23T12:18:16.948Z,12.30
2022-10-23T12:20:50.673Z,12.10
2022-10-23T12:23:57.912Z,12.80
2022-10-23T12:26:37.218Z,11.88
2022-10-23T12:29:22.588Z,11.55
2022-10-23T12:32:15.341Z,11.25
2022-10-23T12:35:09.672Z,9.40
2022-10-23T12:37:46.355Z,11.20
2022-10-23T12:40:17.052Z,9.70
2022-10-23T12:42:58.327Z,9.68
2022-10-23T12:45:40.107Z,9.00
2022-10-23T12:48:22.025Z,9.00
2022-10-23T12:50:57.916Z,7.88
2022-10-23T12:53:28.598Z,7.90
2022-10-23T12:56:02.786Z,8.05
2022-10-23T12:58:35.915Z,6.85
2022-10-23T13:01:09.300Z,6.80
2022-10-23T13:03:40.740Z,7.20
2022-10-23T13:06:13.092Z,6.10
2022-10-23T13:11:44.996Z,7.35
2022-10-23T13:14:40.742Z,7.70
2022-10-23T13:17:14.429Z,7.25
2022-10-23T13:19:44.856Z,6.93
2022-10-23T13:22:24.272Z,6.95
2022-10-23T13:24:54.664Z,6.60
2022-10-23T13:27:35.895Z,5.95
2022-10-23T13:30:09.957Z,5.35
2022-10-23T13:32:41.501Z,5.50
2022-10-23T13:35:32.168Z,5.07
2022-10-23T13:38:10.284Z,6.60
2022-10-23T13:40:40.767Z,5.70
2022-10-23T13:43:20.603Z,5.97
2022-10-23T13:45:51.011Z,6.43
2022-10-23T13:48:22.487Z,6.65
2022-10-23T13:50:53.295Z,6.40
2022-10-23T13:53:23.769Z,6.55
2022-10-23T13:55:57.830Z,5.88
2022-10-23T13:58:29.276Z,6.07
2022-10-23T14:01:00.347Z,5.30
2022-10-23T14:03:31.112Z,6.28
2022-10-23T14:06:02.390Z,5.90
2022-10-23T14:08:32.981Z,6.20
2022-10-23T14:11:03.704Z,5.32
2022-10-23T14:13:34.858Z,5.22
2022-10-23T14:16:05.643Z,5.90
2022-10-23T14:18:36.309Z,4.97
2022-10-23T14:21:09.257Z,5.20
2022-10-23T14:23:39.862Z,4.75
2022-10-23T14:26:16.700Z,4.55
2022-10-23T14:28:47.581Z,5.38
2022-10-23T14:31:19.262Z,4.90
2022-10-23T14:33:57.329Z,4.70
2022-10-23T14:36:38.291Z,4.88
2022-10-23T14:39:19.722Z,4.75
2022-10-23T14:41:50.372Z,4.72
2022-10-23T14:44:22.306Z,4.23
2022-10-23T14:46:53.222Z,4.57
2022-10-23T14:49:23.722Z,4.10
2022-10-23T14:51:54.329Z,3.40
2022-10-23T14:54:24.753Z,4.30
2022-10-23T14:56:55.179Z,4.20
2022-10-23T14:59:25.723Z,4.18
2022-10-23T15:01:56.168Z,3.85
2022-10-23T15:04:26.656Z,4.18
2022-10-23T15:06:57.254Z,4.13
2022-10-23T15:09:28.358Z,4.10
2022-10-23T15:12:08.710Z,3.70
2022-10-23T15:14:39.365Z,3.42
2022-10-23T15:17:14.562Z,4.28
2022-10-23T15:19:46.237Z,3.55
2022-10-23T15:22:16.662Z,3.40
2022-10-23T15:24:48.913Z,4.15
2022-10-23T15:27:20.251Z,3.90
2022-10-23T15:29:51.097Z,3.80
2022-10-23T15:32:21.711Z,3.72
2022-10-23T15:34:54.764Z,3.90
2022-10-23T15:37:25.437Z,4.18
2022-10-23T15:40:01.159Z,4.22
2022-10-23T15:42:32.813Z,4.28
2022-10-23T15:45:03.609Z,3.92
2022-10-23T15:47:34.479Z,4.23
2022-10-23T15:50:05.227Z,3.97
2022-10-23T15:52:35.731Z,3.95
2022-10-23T15:55:06.923Z,4.22
2022-10-23T15:57:37.292Z,4.10
2022-10-23T16:00:20.715Z,4.32
2022-10-23T16:02:51.700Z,4.50
2022-10-23T16:05:22.009Z,4.53
2022-10-23T16:07:52.396Z,4.32
2022-10-23T16:10:23.858Z,4.28
2022-10-23T16:12:54.798Z,4.50
2022-10-23T16:15:25.298Z,4.80
2022-10-23T16:17:55.830Z,5.00
2022-10-23T16:20:26.552Z,5.50
2022-10-23T16:22:56.970Z,4.88
2022-10-23T16:25:27.493Z,4.53
2022-10-23T16:28:00.517Z,5.45
2022-10-23T16:30:31.065Z,4.75
2022-10-23T16:33:01.671Z,4.43
2022-10-23T16:35:32.096Z,5.22
2022-10-23T16:38:11.121Z,4.40
2022-10-23T16:40:41.509Z,4.50
2022-10-23T16:43:41.829Z,5.10
2022-10-23T16:46:30.197Z,5.03
2022-10-23T16:49:00.947Z,4.30
2022-10-23T16:51:34.434Z,5.03
2022-10-23T16:54:04.975Z,4.65
2022-10-23T16:56:35.348Z,4.63
2022-10-23T16:59:06.464Z,4.95
2022-10-23T17:01:37.168Z,4.90
2022-10-23T17:04:11.401Z,4.43
2022-10-23T17:06:42.325Z,4.75
2022-10-23T17:09:13.115Z,4.80
2022-10-23T17:11:46.694Z,4.18
2022-10-23T17:14:19.508Z,4.95
2022-10-23T17:16:53.052Z,5.22
2022-10-23T17:22:18.807Z,5.57
2022-10-23T17:24:51.604Z,5.15
2022-10-23T17:27:24.242Z,5.90
2022-10-23T17:29:54.650Z,6.25
2022-10-23T17:32:25.322Z,6.20
2022-10-23T17:34:55.905Z,6.22
2022-10-23T17:37:26.303Z,5.88
2022-10-23T17:40:00.154Z,5.68
2022-10-23T17:42:31.774Z,5.53
2022-10-23T17:45:02.297Z,5.72
2022-10-23T17:47:32.807Z,5.30
2022-10-23T17:50:03.457Z,5.22
2022-10-23T17:52:33.965Z,4.93
2022-10-23T17:55:04.550Z,5.22
2022-10-23T17:57:35.199Z,5.28
2022-10-23T18:00:07.405Z,4.22
2022-10-23T18:02:42.356Z,4.25
2022-10-23T18:05:13.412Z,5.03
2022-10-23T18:07:44.038Z,4.70
2022-10-23T18:10:14.892Z,4.45
2022-10-23T18:12:45.859Z,4.40
2022-10-23T18:15:16.895Z,4.22
2022-10-23T18:17:50.674Z,4.90
2022-10-23T18:20:21.476Z,4.70
2022-10-23T18:22:52.436Z,4.27
2022-10-23T18:25:22.835Z,4.30
2022-10-23T18:27:53.309Z,3.72
2022-10-23T18:30:23.939Z,4.10
2022-10-23T18:32:54.823Z,3.63
2022-10-23T18:35:26.179Z,4.00
2022-10-23T18:37:56.552Z,4.07
2022-10-23T18:40:27.923Z,4.32
2022-10-23T18:42:58.692Z,3.80
2022-10-23T18:45:29.054Z,3.35
2022-10-23T18:47:59.519Z,3.78
2022-10-23T18:50:30.343Z,3.72
2022-10-23T18:53:01.000Z,3.17
2022-10-23T18:58:07.123Z,3.85
2022-10-23T19:00:37.481Z,3.35
2022-10-23T19:03:07.944Z,3.70
2022-10-23T19:05:38.520Z,3.60
2022-10-23T19:08:08.907Z,3.40
2022-10-23T19:10:40.812Z,3.55
2022-10-23T19:13:11.161Z,3.47
2022-10-23T19:15:41.695Z,3.42
2022-10-23T19:18:12.785Z,3.60
2022-10-23T19:20:44.559Z,3.17
2022-10-23T19:23:15.972Z,3.10
2022-10-23T19:25:48.819Z,2.83
2022-10-23T19:28:19.982Z,3.22
2022-10-23T19:30:50.480Z,3.08
2022-10-23T19:33:20.928Z,3.30
2022-10-23T19:35:51.297Z,3.00
2022-10-23T19:38:21.687Z,2.85
2022-10-23T19:40:52.471Z,2.92
2022-10-23T19:43:22.792Z,3.22
2022-10-23T19:45:53.278Z,3.22
2022-10-23T19:48:23.688Z,2.92
2022-10-23T19:50:54.105Z,3.25
2022-10-23T19:53:25.045Z,3.25
2022-10-23T19:56:08.060Z,3.17
2022-10-23T19:58:38.797Z,3.22
2022-10-23T20:01:20.475Z,3.22
2022-10-23T20:03:51.399Z,3.40
2022-10-23T20:06:25.974Z,3.70
2022-10-23T20:08:57.050Z,3.28
2022-10-23T20:11:30.498Z,3.15
2022-10-23T20:14:01.100Z,3.60
2022-10-23T20:16:34.354Z,4.15
2022-10-23T20:19:07.674Z,4.15
2022-10-23T20:21:40.138Z,4.10
2022-10-23T20:24:11.870Z,4.70
2022-10-23T20:26:50.604Z,4.80
2022-10-23T20:29:23.136Z,4.70
2022-10-23T20:31:54.050Z,5.27
2022-10-23T20:34:24.505Z,4.68
2022-10-23T20:36:55.104Z,5.10
2022-10-23T20:39:27.533Z,5.50
2022-10-23T20:41:58.563Z,5.63
2022-10-23T20:44:30.642Z,5.22
2022-10-23T20:47:01.057Z,5.13
2022-10-23T20:49:31.504Z,5.00
2022-10-23T20:52:03.778Z,5.68
2022-10-23T20:54:34.244Z,4.88
2022-10-23T20:57:04.683Z,5.30
2022-10-23T20:59:35.193Z,5.10
2022-10-23T21:02:05.866Z,5.07
2022-10-23T21:04:36.439Z,5.00
2022-10-23T21:07:11.117Z,5.15
2022-10-23T21:09:42.048Z,4.80
2022-10-23T21:12:12.964Z,4.90
2022-10-23T21:14:43.355Z,4.22
2022-10-23T21:17:17.875Z,4.63
2022-10-23T21:19:48.405Z,4.97
2022-10-23T21:22:18.984Z,4.88
2022-10-23T21:24:49.419Z,4.50
2022-10-23T21:27:19.845Z,5.53
2022-10-23T21:29:50.292Z,4.82
2022-10-23T21:32:21.870Z,5.32
2022-10-23T21:34:52.284Z,5.47
2022-10-23T21:37:22.679Z,5.78
2022-10-23T21:39:53.050Z,5.47
2022-10-23T21:42:23.652Z,5.32
2022-10-23T21:44:54.723Z,5.90
2022-10-23T21:47:38.277Z,5.40
2022-10-23T21:50:09.335Z,6.03
2022-10-23T21:52:40.218Z,6.57
2022-10-23T21:55:11.132Z,6.68
2022-10-23T21:57:41.915Z,7.33
2022-10-23T22:00:17.304Z,7.25
2022-10-23T22:02:47.981Z,7.60
2022-10-23T22:05:18.767Z,8.07
2022-10-23T22:07:49.965Z,7.15
2022-10-23T22:10:20.378Z,8.02
2022-10-23T22:12:50.871Z,8.60
2022-10-23T22:15:21.914Z,8.45
2022-10-23T22:17:52.361Z,8.63
2022-10-23T22:20:23.072Z,8.68
2022-10-23T22:22:53.936Z,8.60
2022-10-23T22:25:24.393Z,8.38
2022-10-23T22:27:54.845Z,9.02
2022-10-23T22:30:25.313Z,9.25
2022-10-23T22:32:55.821Z,9.07
2022-10-23T22:35:26.831Z,9.52
2022-10-23T22:37:57.293Z,8.85
2022-10-23T22:40:41.901Z,9.75
2022-10-23T22:43:14.905Z,10.35
2022-10-23T22:45:45.938Z,10.65
2022-10-23T22:48:16.472Z,11.20
2022-10-23T22:50:48.079Z,11.15
2022-10-23T22:53:18.504Z,10.75
2022-10-23T22:55:48.922Z,10.63
2022-10-23T22:58:19.685Z,11.43
2022-10-23T23:00:51.560Z,11.30
2022-10-23T23:03:22.230Z,11.52
2022-10-23T23:05:53.056Z,11.68
2022-10-23T23:08:23.456Z,11.82
2022-10-23T23:10:55.320Z,11.95
2022-10-23T23:13:26.784Z,12.35
2022-10-23T23:15:57.765Z,11.50
2022-10-23T23:18:29.058Z,11.93
2022-10-23T23:21:03.955Z,11.45
2022-10-23T23:23:34.497Z,11.20
2022-10-23T23:26:08.031Z,11.25
2022-10-23T23:28:38.806Z,12.25
2022-10-23T23:31:13.134Z,11.43
2022-10-23T23:33:43.733Z,16.27
2022-10-23T23:36:17.612Z,19.63
2022-10-23T23:38:48.055Z,21.30
2022-10-23T23:41:21.151Z,22.58
2022-10-23T23:43:54.198Z,24.98
2022-10-23T23:46:25.182Z,28.88
2022-10-23T23:48:56.242Z,31.70
2022-10-23T23:51:27.763Z,31.15
2022-10-23T23:53:58.684Z,34.78
2022-10-23T23:56:29.202Z,38.03
2022-10-23T23:58:59.936Z,37.88
